sensor_id;sensor_type;location;lat;lon;timestamp;P1;durP1;ratioP1;P2;durP2;ratioP2
28007;SDS011;15333;50.010;20.020;2023-03-14T00:02:41;4.88;;;2.97;;
28007;SDS011;15333;50.010;20.020;2023-03-14T00:05:42;5.13;;;2.55;;
28007;SDS011;15333;50.010;20.020;2023-03-14T00:08:43;4.18;;;2.60;;
28007;SDS011;15333;50.010;20.020;2023-03-14T00:11:45;4.57;;;2.58;;
28007;SDS011;15333;50.010;20.020;2023-03-14T00:14:46;5.72;;;3.05;;
28007;SDS011;15333;50.010;20.020;2023-03-14T00:17:48;6.22;;;2.72;;
28007;SDS011;15333;50.010;20.020;2023-03-14T00:20:48;4.35;;;2.30;;
28007;SDS011;15333;50.010;20.020;2023-03-14T00:23:49;4.65;;;2.60;;
28007;SDS011;15333;50.010;20.020;2023-03-14T00:26:50;4.68;;;2.72;;
28007;SDS011;15333;50.010;20.020;2023-03-14T00:29:51;5.38;;;2.78;;
28007;SDS011;15333;50.010;20.020;2023-03-14T00:32:52;8.60;;;2.90;;
28007;SDS011;15333;50.010;20.020;2023-03-14T00:35:57;3.97;;;2.45;;
28007;SDS011;15333;50.010;20.020;2023-03-14T00:39:00;3.83;;;2.20;;
28007;SDS011;15333;50.010;20.020;2023-03-14T00:42:01;4.28;;;2.88;;
28007;SDS011;15333;50.010;20.020;2023-03-14T00:45:03;4.82;;;2.30;;
28007;SDS011;15333;50.010;20.020;2023-03-14T00:48:04;4.63;;;2.58;;
28007;SDS011;15333;50.010;20.020;2023-03-14T00:51:06;4.97;;;2.75;;
28007;SDS011;15333;50.010;20.020;2023-03-14T00:54:07;6.45;;;2.80;;
28007;SDS011;15333;50.010;20.020;2023-03-14T00:57:08;6.18;;;3.15;;
28007;SDS011;15333;50.010;20.020;2023-03-14T01:00:09;5.18;;;2.67;;
28007;SDS011;15333;50.010;20.020;2023-03-14T01:03:13;5.45;;;2.92;;
28007;SDS011;15333;50.010;20.020;2023-03-14T01:06:22;4.07;;;2.40;;
28007;SDS011;15333;50.010;20.020;2023-03-14T01:09:24;5.40;;;3.03;;
28007;SDS011;15333;50.010;20.020;2023-03-14T01:12:26;4.45;;;2.90;;
28007;SDS011;15333;50.010;20.020;2023-03-14T01:15:27;4.85;;;2.70;;
28007;SDS011;15333;50.010;20.020;2023-03-14T01:18:29;4.35;;;3.08;;
28007;SDS011;15333;50.010;20.020;2023-03-14T01:21:31;4.80;;;3.03;;
28007;SDS011;15333;50.010;20.020;2023-03-14T01:24:33;6.35;;;3.13;;
28007;SDS011;15333;50.010;20.020;2023-03-14T01:27:34;5.05;;;2.80;;
28007;SDS011;15333;50.010;20.020;2023-03-14T01:30:35;4.00;;;2.88;;
28007;SDS011;15333;50.010;20.020;2023-03-14T01:33:36;4.07;;;2.88;;
28007;SDS011;15333;50.010;20.020;2023-03-14T01:36:38;4.93;;;3.00;;
28007;SDS011;15333;50.010;20.020;2023-03-14T01:39:40;5.22;;;3.20;;
28007;SDS011;15333;50.010;20.020;2023-03-14T01:42:44;7.25;;;2.95;;
28007;SDS011;15333;50.010;20.020;2023-03-14T01:52:45;7.68;;;3.53;;
28007;SDS011;15333;50.010;20.020;2023-03-14T01:55:48;5.75;;;3.28;;
28007;SDS011;15333;50.010;20.020;2023-03-14T01:58:50;6.65;;;2.95;;
28007;SDS011;15333;50.010;20.020;2023-03-14T02:01:53;5.30;;;3.35;;
28007;SDS011;15333;50.010;20.020;2023-03-14T02:04:55;4.50;;;3.05;;
28007;SDS011;15333;50.010;20.020;2023-03-14T02:08:04;6.38;;;3.45;;
28007;SDS011;15333;50.010;20.020;2023-03-14T02:11:14;5.07;;;3.78;;
28007;SDS011;15333;50.010;20.020;2023-03-14T02:14:33;5.90;;;3.13;;
28007;SDS011;15333;50.010;20.020;2023-03-14T02:17:54;8.40;;;3.38;;
28007;SDS011;15333;50.010;20.020;2023-03-14T02:27:40;6.32;;;3.40;;
28007;SDS011;15333;50.010;20.020;2023-03-14T02:30:42;6.95;;;3.63;;
28007;SDS011;15333;50.010;20.020;2023-03-14T02:33:43;5.30;;;3.45;;
28007;SDS011;15333;50.010;20.020;2023-03-14T02:36:44;9.82;;;3.97;;
28007;SDS011;15333;50.010;20.020;2023-03-14T02:39:46;6.65;;;3.20;;
28007;SDS011;15333;50.010;20.020;2023-03-14T02:42:49;8.90;;;4.10;;
28007;SDS011;15333;50.010;20.020;2023-03-14T02:45:51;6.00;;;3.47;;
28007;SDS011;15333;50.010;20.020;2023-03-14T02:48:57;6.22;;;3.58;;
28007;SDS011;15333;50.010;20.020;2023-03-14T02:52:05;9.13;;;4.05;;
28007;SDS011;15333;50.010;20.020;2023-03-14T02:55:06;6.88;;;3.70;;
28007;SDS011;15333;50.010;20.020;2023-03-14T02:58:09;6.88;;;3.13;;
28007;SDS011;15333;50.010;20.020;2023-03-14T03:01:10;8.65;;;3.58;;
28007;SDS011;15333;50.010;20.020;2023-03-14T03:04:12;6.60;;;3.72;;
28007;SDS011;15333;50.010;20.020;2023-03-14T03:07:13;7.47;;;3.67;;
28007;SDS011;15333;50.010;20.020;2023-03-14T03:10:14;7.22;;;3.67;;
28007;SDS011;15333;50.010;20.020;2023-03-14T03:13:15;6.18;;;3.40;;
28007;SDS011;15333;50.010;20.020;2023-03-14T03:16:18;6.38;;;3.42;;
28007;SDS011;15333;50.010;20.020;2023-03-14T03:19:19;7.50;;;3.60;;
28007;SDS011;15333;50.010;20.020;2023-03-14T03:22:22;10.07;;;3.85;;
28007;SDS011;15333;50.010;20.020;2023-03-14T03:25:23;7.78;;;3.50;;
28007;SDS011;15333;50.010;20.020;2023-03-14T03:28:24;8.48;;;3.80;;
28007;SDS011;15333;50.010;20.020;2023-03-14T03:31:26;7.05;;;3.60;;
28007;SDS011;15333;50.010;20.020;2023-03-14T03:34:27;6.45;;;3.22;;
28007;SDS011;15333;50.010;20.020;2023-03-14T03:37:30;5.85;;;3.60;;
28007;SDS011;15333;50.010;20.020;2023-03-14T03:40:35;9.48;;;3.53;;
28007;SDS011;15333;50.010;20.020;2023-03-14T03:43:36;6.70;;;3.85;;
28007;SDS011;15333;50.010;20.020;2023-03-14T03:46:39;8.40;;;3.88;;
28007;SDS011;15333;50.010;20.020;2023-03-14T03:49:40;10.35;;;3.83;;
28007;SDS011;15333;50.010;20.020;2023-03-14T03:52:43;6.75;;;3.67;;
28007;SDS011;15333;50.010;20.020;2023-03-14T03:55:44;6.50;;;3.83;;
28007;SDS011;15333;50.010;20.020;2023-03-14T03:58:45;5.43;;;3.67;;
28007;SDS011;15333;50.010;20.020;2023-03-14T04:01:46;6.85;;;3.35;;
28007;SDS011;15333;50.010;20.020;2023-03-14T04:04:48;7.18;;;3.78;;
28007;SDS011;15333;50.010;20.020;2023-03-14T04:07:49;5.13;;;3.53;;
28007;SDS011;15333;50.010;20.020;2023-03-14T04:10:56;10.18;;;4.68;;
28007;SDS011;15333;50.010;20.020;2023-03-14T04:14:20;7.57;;;3.80;;
28007;SDS011;15333;50.010;20.020;2023-03-14T04:17:24;4.90;;;3.40;;
28007;SDS011;15333;50.010;20.020;2023-03-14T04:20:25;6.97;;;3.60;;
28007;SDS011;15333;50.010;20.020;2023-03-14T04:23:27;7.97;;;3.60;;
28007;SDS011;15333;50.010;20.020;2023-03-14T04:26:29;7.93;;;3.80;;
28007;SDS011;15333;50.010;20.020;2023-03-14T04:29:30;6.25;;;3.63;;
28007;SDS011;15333;50.010;20.020;2023-03-14T04:32:31;5.60;;;3.50;;
28007;SDS011;15333;50.010;20.020;2023-03-14T04:35:33;6.93;;;3.22;;
28007;SDS011;15333;50.010;20.020;2023-03-14T04:38:39;9.95;;;3.70;;
28007;SDS011;15333;50.010;20.020;2023-03-14T04:41:42;5.50;;;2.67;;
28007;SDS011;15333;50.010;20.020;2023-03-14T04:44:51;5.13;;;3.20;;
28007;SDS011;15333;50.010;20.020;2023-03-14T04:47:56;5.55;;;3.33;;
28007;SDS011;15333;50.010;20.020;2023-03-14T04:50:57;6.03;;;3.40;;
28007;SDS011;15333;50.010;20.020;2023-03-14T04:53:59;10.20;;;4.05;;
28007;SDS011;15333;50.010;20.020;2023-03-14T04:57:00;6.35;;;3.40;;
28007;SDS011;15333;50.010;20.020;2023-03-14T05:00:05;6.78;;;3.35;;
28007;SDS011;15333;50.010;20.020;2023-03-14T05:03:27;8.07;;;3.67;;
28007;SDS011;15333;50.010;20.020;2023-03-14T05:06:41;4.45;;;2.83;;
28007;SDS011;15333;50.010;20.020;2023-03-14T05:10:01;6.05;;;3.30;;
28007;SDS011;15333;50.010;20.020;2023-03-14T05:13:19;8.38;;;3.28;;
28007;SDS011;15333;50.010;20.020;2023-03-14T05:16:37;6.03;;;3.00;;
28007;SDS011;15333;50.010;20.020;2023-03-14T05:20:16;9.82;;;3.20;;
28007;SDS011;15333;50.010;20.020;2023-03-14T05:23:36;10.05;;;3.47;;
28007;SDS011;15333;50.010;20.020;2023-03-14T05:26:48;9.70;;;2.83;;
28007;SDS011;15333;50.010;20.020;2023-03-14T05:29:55;10.05;;;4.22;;
28007;SDS011;15333;50.010;20.020;2023-03-14T05:32:57;7.32;;;3.45;;
28007;SDS011;15333;50.010;20.020;2023-03-14T05:36:12;7.97;;;3.90;;
28007;SDS011;15333;50.010;20.020;2023-03-14T05:39:32;7.30;;;3.40;;
28007;SDS011;15333;50.010;20.020;2023-03-14T05:42:59;9.18;;;3.97;;
28007;SDS011;15333;50.010;20.020;2023-03-14T05:46:19;11.53;;;4.03;;
28007;SDS011;15333;50.010;20.020;2023-03-14T05:49:43;9.50;;;3.85;;
28007;SDS011;15333;50.010;20.020;2023-03-14T05:53:07;14.45;;;4.22;;
28007;SDS011;15333;50.010;20.020;2023-03-14T05:56:23;14.75;;;4.38;;
28007;SDS011;15333;50.010;20.020;2023-03-14T05:59:41;11.27;;;4.07;;
28007;SDS011;15333;50.010;20.020;2023-03-14T06:03:14;12.55;;;4.28;;
28007;SDS011;15333;50.010;20.020;2023-03-14T06:06:19;5.82;;;3.22;;
28007;SDS011;15333;50.010;20.020;2023-03-14T06:09:20;14.73;;;4.40;;
28007;SDS011;15333;50.010;20.020;2023-03-14T06:12:23;10.05;;;3.70;;
28007;SDS011;15333;50.010;20.020;2023-03-14T06:15:25;25.27;;;5.60;;
28007;SDS011;15333;50.010;20.020;2023-03-14T06:18:29;13.70;;;5.57;;
28007;SDS011;15333;50.010;20.020;2023-03-14T06:21:30;21.20;;;5.63;;
28007;SDS011;15333;50.010;20.020;2023-03-14T06:24:32;25.92;;;5.85;;
28007;SDS011;15333;50.010;20.020;2023-03-14T06:27:34;24.50;;;7.00;;
28007;SDS011;15333;50.010;20.020;2023-03-14T06:30:35;27.17;;;6.50;;
28007;SDS011;15333;50.010;20.020;2023-03-14T06:33:36;14.65;;;5.38;;
28007;SDS011;15333;50.010;20.020;2023-03-14T06:36:38;24.88;;;7.22;;
28007;SDS011;15333;50.010;20.020;2023-03-14T06:39:39;38.50;;;8.05;;
28007;SDS011;15333;50.010;20.020;2023-03-14T06:42:47;50.67;;;9.57;;
28007;SDS011;15333;50.010;20.020;2023-03-14T06:45:50;18.63;;;7.20;;
28007;SDS011;15333;50.010;20.020;2023-03-14T06:48:51;17.65;;;6.28;;
28007;SDS011;15333;50.010;20.020;2023-03-14T06:51:52;24.10;;;6.45;;
28007;SDS011;15333;50.010;20.020;2023-03-14T06:54:54;19.02;;;6.25;;
28007;SDS011;15333;50.010;20.020;2023-03-14T06:57:56;16.20;;;5.57;;
28007;SDS011;15333;50.010;20.020;2023-03-14T07:00:58;11.30;;;4.22;;
28007;SDS011;15333;50.010;20.020;2023-03-14T07:04:03;8.35;;;3.65;;
28007;SDS011;15333;50.010;20.020;2023-03-14T07:07:05;5.30;;;3.15;;
28007;SDS011;15333;50.010;20.020;2023-03-14T07:10:08;6.65;;;3.33;;
28007;SDS011;15333;50.010;20.020;2023-03-14T07:13:10;8.95;;;3.20;;
28007;SDS011;15333;50.010;20.020;2023-03-14T07:16:21;7.25;;;3.72;;
28007;SDS011;15333;50.010;20.020;2023-03-14T07:19:23;6.75;;;3.17;;
28007;SDS011;15333;50.010;20.020;2023-03-14T07:22:24;9.90;;;3.88;;
28007;SDS011;15333;50.010;20.020;2023-03-14T07:25:27;6.80;;;3.38;;
28007;SDS011;15333;50.010;20.020;2023-03-14T07:28:28;6.82;;;3.33;;
28007;SDS011;15333;50.010;20.020;2023-03-14T07:31:35;7.10;;;2.75;;
28007;SDS011;15333;50.010;20.020;2023-03-14T07:34:37;4.05;;;2.33;;
28007;SDS011;15333;50.010;20.020;2023-03-14T07:37:39;9.13;;;3.03;;
28007;SDS011;15333;50.010;20.020;2023-03-14T07:40:39;8.00;;;3.25;;
28007;SDS011;15333;50.010;20.020;2023-03-14T07:43:41;5.22;;;3.00;;
28007;SDS011;15333;50.010;20.020;2023-03-14T07:46:42;5.68;;;3.10;;
28007;SDS011;15333;50.010;20.020;2023-03-14T07:49:43;6.80;;;3.63;;
28007;SDS011;15333;50.010;20.020;2023-03-14T07:52:43;7.53;;;3.00;;
28007;SDS011;15333;50.010;20.020;2023-03-14T07:55:44;9.45;;;3.88;;
28007;SDS011;15333;50.010;20.020;2023-03-14T07:58:45;9.98;;;3.80;;
28007;SDS011;15333;50.010;20.020;2023-03-14T08:01:46;7.82;;;3.83;;
28007;SDS011;15333;50.010;20.020;2023-03-14T08:04:47;7.68;;;3.15;;
28007;SDS011;15333;50.010;20.020;2023-03-14T08:07:49;7.20;;;3.38;;
28007;SDS011;15333;50.010;20.020;2023-03-14T08:10:50;6.22;;;3.17;;
28007;SDS011;15333;50.010;20.020;2023-03-14T08:13:51;7.43;;;3.45;;
28007;SDS011;15333;50.010;20.020;2023-03-14T08:16:52;7.45;;;3.40;;
28007;SDS011;15333;50.010;20.020;2023-03-14T08:19:53;8.05;;;3.55;;
28007;SDS011;15333;50.010;20.020;2023-03-14T08:23:00;8.68;;;3.75;;
28007;SDS011;15333;50.010;20.020;2023-03-14T08:26:02;5.85;;;3.25;;
28007;SDS011;15333;50.010;20.020;2023-03-14T08:29:03;10.27;;;3.45;;
28007;SDS011;15333;50.010;20.020;2023-03-14T08:32:05;6.72;;;3.50;;
28007;SDS011;15333;50.010;20.020;2023-03-14T08:35:06;8.85;;;3.95;;
28007;SDS011;15333;50.010;20.020;2023-03-14T08:38:08;8.05;;;3.15;;
28007;SDS011;15333;50.010;20.020;2023-03-14T08:41:09;6.28;;;3.38;;
28007;SDS011;15333;50.010;20.020;2023-03-14T08:44:10;4.60;;;3.28;;
28007;SDS011;15333;50.010;20.020;2023-03-14T08:47:14;10.32;;;3.55;;
28007;SDS011;15333;50.010;20.020;2023-03-14T08:50:15;8.27;;;3.65;;
28007;SDS011;15333;50.010;20.020;2023-03-14T08:53:15;6.35;;;3.58;;
28007;SDS011;15333;50.010;20.020;2023-03-14T08:56:16;6.32;;;3.42;;
28007;SDS011;15333;50.010;20.020;2023-03-14T08:59:17;8.23;;;3.40;;
28007;SDS011;15333;50.010;20.020;2023-03-14T09:02:18;8.70;;;3.45;;
28007;SDS011;15333;50.010;20.020;2023-03-14T09:05:19;5.93;;;3.42;;
28007;SDS011;15333;50.010;20.020;2023-03-14T09:08:20;10.23;;;4.72;;
28007;SDS011;15333;50.010;20.020;2023-03-14T09:11:21;8.95;;;4.10;;
28007;SDS011;15333;50.010;20.020;2023-03-14T09:14:22;6.90;;;3.55;;
28007;SDS011;15333;50.010;20.020;2023-03-14T09:17:23;6.18;;;3.33;;
28007;SDS011;15333;50.010;20.020;2023-03-14T09:20:24;7.45;;;3.72;;
28007;SDS011;15333;50.010;20.020;2023-03-14T09:23:25;9.32;;;4.10;;
28007;SDS011;15333;50.010;20.020;2023-03-14T09:26:26;9.02;;;4.03;;
28007;SDS011;15333;50.010;20.020;2023-03-14T09:29:27;6.50;;;3.60;;
28007;SDS011;15333;50.010;20.020;2023-03-14T09:32:29;7.55;;;3.88;;
28007;SDS011;15333;50.010;20.020;2023-03-14T09:35:33;5.43;;;3.38;;
28007;SDS011;15333;50.010;20.020;2023-03-14T09:38:34;6.90;;;3.88;;
28007;SDS011;15333;50.010;20.020;2023-03-14T09:41:37;7.43;;;3.70;;
28007;SDS011;15333;50.010;20.020;2023-03-14T09:44:42;5.63;;;3.17;;
28007;SDS011;15333;50.010;20.020;2023-03-14T09:47:57;5.78;;;3.30;;
28007;SDS011;15333;50.010;20.020;2023-03-14T09:51:00;5.93;;;3.80;;
28007;SDS011;15333;50.010;20.020;2023-03-14T09:54:05;7.85;;;3.53;;
28007;SDS011;15333;50.010;20.020;2023-03-14T09:57:19;6.10;;;3.60;;
28007;SDS011;15333;50.010;20.020;2023-03-14T10:00:25;5.55;;;3.67;;
28007;SDS011;15333;50.010;20.020;2023-03-14T10:03:31;10.13;;;3.65;;
28007;SDS011;15333;50.010;20.020;2023-03-14T10:06:34;9.75;;;3.35;;
28007;SDS011;15333;50.010;20.020;2023-03-14T10:09:35;7.07;;;3.95;;
28007;SDS011;15333;50.010;20.020;2023-03-14T10:12:37;5.50;;;3.53;;
28007;SDS011;15333;50.010;20.020;2023-03-14T10:15:39;16.60;;;4.05;;
28007;SDS011;15333;50.010;20.020;2023-03-14T10:18:43;6.22;;;3.15;;
28007;SDS011;15333;50.010;20.020;2023-03-14T10:21:53;6.55;;;3.70;;
28007;SDS011;15333;50.010;20.020;2023-03-14T10:24:55;7.28;;;3.92;;
28007;SDS011;15333;50.010;20.020;2023-03-14T10:27:59;8.18;;;3.85;;
28007;SDS011;15333;50.010;20.020;2023-03-14T10:31:02;5.28;;;2.90;;
28007;SDS011;15333;50.010;20.020;2023-03-14T10:34:04;6.80;;;3.50;;
28007;SDS011;15333;50.010;20.020;2023-03-14T10:37:06;5.22;;;3.25;;
28007;SDS011;15333;50.010;20.020;2023-03-14T10:40:18;6.57;;;3.47;;
28007;SDS011;15333;50.010;20.020;2023-03-14T10:43:39;5.82;;;3.55;;
28007;SDS011;15333;50.010;20.020;2023-03-14T10:46:41;6.45;;;3.47;;
28007;SDS011;15333;50.010;20.020;2023-03-14T10:53:26;7.28;;;3.50;;
28007;SDS011;15333;50.010;20.020;2023-03-14T10:56:27;6.28;;;3.75;;
28007;SDS011;15333;50.010;20.020;2023-03-14T10:59:35;7.75;;;3.90;;
28007;SDS011;15333;50.010;20.020;2023-03-14T11:05:45;7.28;;;3.88;;
28007;SDS011;15333;50.010;20.020;2023-03-14T11:19:19;4.82;;;2.70;;
28007;SDS011;15333;50.010;20.020;2023-03-14T11:22:41;5.53;;;2.90;;
28007;SDS011;15333;50.010;20.020;2023-03-14T11:25:52;6.28;;;2.65;;
28007;SDS011;15333;50.010;20.020;2023-03-14T11:29:02;6.68;;;3.05;;
28007;SDS011;15333;50.010;20.020;2023-03-14T11:35:47;6.82;;;2.78;;
28007;SDS011;15333;50.010;20.020;2023-03-14T11:39:07;5.10;;;3.00;;
28007;SDS011;15333;50.010;20.020;2023-03-14T11:42:16;7.45;;;3.00;;
28007;SDS011;15333;50.010;20.020;2023-03-14T11:45:39;4.70;;;2.92;;
28007;SDS011;15333;50.010;20.020;2023-03-14T11:52:09;5.03;;;3.10;;
28007;SDS011;15333;50.010;20.020;2023-03-14T11:55:24;6.35;;;3.60;;
28007;SDS011;15333;50.010;20.020;2023-03-14T11:58:33;8.93;;;3.45;;
28007;SDS011;15333;50.010;20.020;2023-03-14T12:14:36;5.05;;;3.10;;
28007;SDS011;15333;50.010;20.020;2023-03-14T12:17:45;6.32;;;3.03;;
28007;SDS011;15333;50.010;20.020;2023-03-14T12:24:18;6.35;;;3.17;;
28007;SDS011;15333;50.010;20.020;2023-03-14T12:30:43;6.90;;;3.25;;
28007;SDS011;15333;50.010;20.020;2023-03-14T12:33:44;5.38;;;3.15;;
28007;SDS011;15333;50.010;20.020;2023-03-14T12:39:58;4.50;;;3.22;;
28007;SDS011;15333;50.010;20.020;2023-03-14T12:43:46;6.72;;;3.45;;
28007;SDS011;15333;50.010;20.020;2023-03-14T12:46:40;6.35;;;3.88;;
28007;SDS011;15333;50.010;20.020;2023-03-14T12:49:53;6.80;;;3.45;;
28007;SDS011;15333;50.010;20.020;2023-03-14T12:53:02;5.68;;;3.45;;
28007;SDS011;15333;50.010;20.020;2023-03-14T12:56:35;6.32;;;3.50;;
28007;SDS011;15333;50.010;20.020;2023-03-14T12:59:51;7.15;;;3.58;;
28007;SDS011;15333;50.010;20.020;2023-03-14T13:02:59;5.10;;;3.00;;
28007;SDS011;15333;50.010;20.020;2023-03-14T13:09:52;7.65;;;3.30;;
28007;SDS011;15333;50.010;20.020;2023-03-14T13:13:21;7.07;;;3.30;;
28007;SDS011;15333;50.010;20.020;2023-03-14T13:16:27;6.07;;;3.88;;
28007;SDS011;15333;50.010;20.020;2023-03-14T13:19:29;8.95;;;4.20;;
28007;SDS011;15333;50.010;20.020;2023-03-14T13:22:33;8.65;;;3.53;;
28007;SDS011;15333;50.010;20.020;2023-03-14T13:25:37;7.57;;;3.60;;
28007;SDS011;15333;50.010;20.020;2023-03-14T13:28:38;7.60;;;3.63;;
28007;SDS011;15333;50.010;20.020;2023-03-14T13:31:39;7.03;;;3.85;;
28007;SDS011;15333;50.010;20.020;2023-03-14T13:34:46;7.38;;;3.50;;
28007;SDS011;15333;50.010;20.020;2023-03-14T13:37:52;5.00;;;3.05;;
28007;SDS011;15333;50.010;20.020;2023-03-14T13:40:56;7.10;;;3.70;;
28007;SDS011;15333;50.010;20.020;2023-03-14T13:44:13;5.72;;;3.35;;
28007;SDS011;15333;50.010;20.020;2023-03-14T13:47:25;6.65;;;3.42;;
28007;SDS011;15333;50.010;20.020;2023-03-14T13:50:27;11.27;;;3.92;;
28007;SDS011;15333;50.010;20.020;2023-03-14T13:53:28;4.70;;;3.63;;
28007;SDS011;15333;50.010;20.020;2023-03-14T13:56:30;9.65;;;3.47;;
28007;SDS011;15333;50.010;20.020;2023-03-14T13:59:33;4.97;;;3.45;;
28007;SDS011;15333;50.010;20.020;2023-03-14T14:02:36;6.10;;;3.55;;
28007;SDS011;15333;50.010;20.020;2023-03-14T14:05:38;10.38;;;3.60;;
28007;SDS011;15333;50.010;20.020;2023-03-14T14:08:41;6.45;;;3.90;;
28007;SDS011;15333;50.010;20.020;2023-03-14T14:11:45;6.78;;;3.95;;
28007;SDS011;15333;50.010;20.020;2023-03-14T14:18:07;6.82;;;3.63;;
28007;SDS011;15333;50.010;20.020;2023-03-14T14:21:11;6.15;;;4.03;;
28007;SDS011;15333;50.010;20.020;2023-03-14T14:24:14;7.05;;;3.85;;
28007;SDS011;15333;50.010;20.020;2023-03-14T14:27:17;5.80;;;3.70;;
28007;SDS011;15333;50.010;20.020;2023-03-14T14:30:29;7.00;;;3.60;;
28007;SDS011;15333;50.010;20.020;2023-03-14T14:33:43;8.70;;;4.10;;
28007;SDS011;15333;50.010;20.020;2023-03-14T14:36:46;7.07;;;4.00;;
28007;SDS011;15333;50.010;20.020;2023-03-14T14:39:50;6.13;;;4.10;;
28007;SDS011;15333;50.010;20.020;2023-03-14T14:42:54;13.15;;;4.80;;
28007;SDS011;15333;50.010;20.020;2023-03-14T14:46:05;13.90;;;5.50;;
28007;SDS011;15333;50.010;20.020;2023-03-14T14:49:16;8.43;;;4.68;;
28007;SDS011;15333;50.010;20.020;2023-03-14T14:52:31;7.47;;;3.95;;
28007;SDS011;15333;50.010;20.020;2023-03-14T14:55:40;9.35;;;4.43;;
28007;SDS011;15333;50.010;20.020;2023-03-14T14:58:44;6.88;;;3.90;;
28007;SDS011;15333;50.010;20.020;2023-03-14T15:01:46;8.35;;;4.43;;
28007;SDS011;15333;50.010;20.020;2023-03-14T15:04:48;7.40;;;4.03;;
28007;SDS011;15333;50.010;20.020;2023-03-14T15:07:49;7.95;;;4.88;;
28007;SDS011;15333;50.010;20.020;2023-03-14T15:10:50;7.63;;;4.60;;
28007;SDS011;15333;50.010;20.020;2023-03-14T15:13:51;7.75;;;4.47;;
28007;SDS011;15333;50.010;20.020;2023-03-14T15:16:52;11.80;;;5.60;;
28007;SDS011;15333;50.010;20.020;2023-03-14T15:19:53;14.55;;;6.20;;
28007;SDS011;15333;50.010;20.020;2023-03-14T15:22:55;11.30;;;5.78;;
28007;SDS011;15333;50.010;20.020;2023-03-14T15:25:56;10.35;;;6.25;;
28007;SDS011;15333;50.010;20.020;2023-03-14T15:28:58;10.85;;;6.15;;
28007;SDS011;15333;50.010;20.020;2023-03-14T15:31:59;10.85;;;6.20;;
28007;SDS011;15333;50.010;20.020;2023-03-14T15:35:00;10.35;;;5.90;;
28007;SDS011;15333;50.010;20.020;2023-03-14T15:38:01;9.68;;;5.82;;
28007;SDS011;15333;50.010;20.020;2023-03-14T15:41:01;11.27;;;5.53;;
28007;SDS011;15333;50.010;20.020;2023-03-14T15:44:03;10.00;;;5.63;;
28007;SDS011;15333;50.010;20.020;2023-03-14T15:47:04;14.55;;;6.55;;
28007;SDS011;15333;50.010;20.020;2023-03-14T15:50:08;13.27;;;6.53;;
28007;SDS011;15333;50.010;20.020;2023-03-14T15:53:10;14.30;;;6.65;;
28007;SDS011;15333;50.010;20.020;2023-03-14T15:56:12;16.80;;;7.07;;
28007;SDS011;15333;50.010;20.020;2023-03-14T15:59:15;16.02;;;6.80;;
28007;SDS011;15333;50.010;20.020;2023-03-14T16:02:16;18.58;;;7.70;;
28007;SDS011;15333;50.010;20.020;2023-03-14T16:05:17;9.25;;;5.00;;
28007;SDS011;15333;50.010;20.020;2023-03-14T16:08:19;11.20;;;4.95;;
28007;SDS011;15333;50.010;20.020;2023-03-14T16:11:20;8.63;;;4.80;;
28007;SDS011;15333;50.010;20.020;2023-03-14T16:14:21;9.18;;;4.05;;
28007;SDS011;15333;50.010;20.020;2023-03-14T16:17:23;11.32;;;4.13;;
28007;SDS011;15333;50.010;20.020;2023-03-14T16:20:25;4.78;;;3.30;;
28007;SDS011;15333;50.010;20.020;2023-03-14T16:23:26;4.45;;;3.20;;
28007;SDS011;15333;50.010;20.020;2023-03-14T16:26:28;4.57;;;2.97;;
28007;SDS011;15333;50.010;20.020;2023-03-14T16:29:29;6.40;;;3.10;;
28007;SDS011;15333;50.010;20.020;2023-03-14T16:32:31;7.72;;;3.55;;
28007;SDS011;15333;50.010;20.020;2023-03-14T16:35:32;6.43;;;3.38;;
28007;SDS011;15333;50.010;20.020;2023-03-14T16:38:33;5.90;;;3.30;;
28007;SDS011;15333;50.010;20.020;2023-03-14T16:41:35;5.80;;;3.85;;
28007;SDS011;15333;50.010;20.020;2023-03-14T16:44:36;6.15;;;4.28;;
28007;SDS011;15333;50.010;20.020;2023-03-14T16:47:37;7.55;;;3.95;;
28007;SDS011;15333;50.010;20.020;2023-03-14T16:50:39;7.90;;;4.50;;
28007;SDS011;15333;50.010;20.020;2023-03-14T16:53:40;9.18;;;4.80;;
28007;SDS011;15333;50.010;20.020;2023-03-14T16:56:41;8.82;;;4.88;;
28007;SDS011;15333;50.010;20.020;2023-03-14T16:59:42;8.27;;;5.10;;
28007;SDS011;15333;50.010;20.020;2023-03-14T17:02:43;10.77;;;5.85;;
28007;SDS011;15333;50.010;20.020;2023-03-14T17:05:45;9.20;;;5.72;;
28007;SDS011;15333;50.010;20.020;2023-03-14T17:08:47;11.27;;;6.90;;
28007;SDS011;15333;50.010;20.020;2023-03-14T17:11:48;12.07;;;7.22;;
28007;SDS011;15333;50.010;20.020;2023-03-14T17:14:49;11.57;;;7.32;;
28007;SDS011;15333;50.010;20.020;2023-03-14T17:17:50;15.23;;;7.43;;
28007;SDS011;15333;50.010;20.020;2023-03-14T17:20:51;13.25;;;8.05;;
28007;SDS011;15333;50.010;20.020;2023-03-14T17:23:53;17.40;;;9.02;;
28007;SDS011;15333;50.010;20.020;2023-03-14T17:26:54;20.05;;;11.07;;
28007;SDS011;15333;50.010;20.020;2023-03-14T17:29:54;19.67;;;12.60;;
28007;SDS011;15333;50.010;20.020;2023-03-14T17:32:56;26.27;;;15.55;;
28007;SDS011;15333;50.010;20.020;2023-03-14T17:35:57;31.08;;;18.55;;
28007;SDS011;15333;50.010;20.020;2023-03-14T17:38:58;37.55;;;20.02;;
28007;SDS011;15333;50.010;20.020;2023-03-14T17:41:59;37.40;;;23.00;;
28007;SDS011;15333;50.010;20.020;2023-03-14T17:45:00;51.53;;;26.75;;
28007;SDS011;15333;50.010;20.020;2023-03-14T17:48:00;56.25;;;28.65;;
28007;SDS011;15333;50.010;20.020;2023-03-14T17:51:03;51.78;;;27.65;;
28007;SDS011;15333;50.010;20.020;2023-03-14T17:54:04;45.00;;;24.67;;
28007;SDS011;15333;50.010;20.020;2023-03-14T17:57:06;38.15;;;21.42;;
28007;SDS011;15333;50.010;20.020;2023-03-14T18:00:07;35.80;;;20.40;;
28007;SDS011;15333;50.010;20.020;2023-03-14T18:03:09;40.10;;;21.20;;
28007;SDS011;15333;50.010;20.020;2023-03-14T18:06:10;26.77;;;14.63;;
28007;SDS011;15333;50.010;20.020;2023-03-14T18:09:15;22.70;;;14.02;;
28007;SDS011;15333;50.010;20.020;2023-03-14T18:12:16;26.48;;;14.00;;
28007;SDS011;15333;50.010;20.020;2023-03-14T18:15:17;20.73;;;13.40;;
28007;SDS011;15333;50.010;20.020;2023-03-14T18:18:18;26.58;;;14.48;;
28007;SDS011;15333;50.010;20.020;2023-03-14T18:21:19;22.77;;;13.55;;
28007;SDS011;15333;50.010;20.020;2023-03-14T18:24:21;27.35;;;14.20;;
28007;SDS011;15333;50.010;20.020;2023-03-14T18:27:22;28.40;;;14.90;;
28007;SDS011;15333;50.010;20.020;2023-03-14T18:30:23;25.48;;;16.02;;
28007;SDS011;15333;50.010;20.020;2023-03-14T18:33:24;28.55;;;13.98;;
28007;SDS011;15333;50.010;20.020;2023-03-14T18:36:25;24.30;;;14.68;;
28007;SDS011;15333;50.010;20.020;2023-03-14T18:39:26;24.38;;;14.20;;
28007;SDS011;15333;50.010;20.020;2023-03-14T18:42:27;24.40;;;13.85;;
28007;SDS011;15333;50.010;20.020;2023-03-14T18:45:29;30.17;;;15.20;;
28007;SDS011;15333;50.010;20.020;2023-03-14T18:48:30;23.83;;;14.98;;
28007;SDS011;15333;50.010;20.020;2023-03-14T18:51:32;24.88;;;15.00;;
28007;SDS011;15333;50.010;20.020;2023-03-14T18:54:33;26.23;;;16.05;;
28007;SDS011;15333;50.010;20.020;2023-03-14T18:57:34;23.15;;;14.25;;
28007;SDS011;15333;50.010;20.020;2023-03-14T19:00:35;25.58;;;14.20;;
28007;SDS011;15333;50.010;20.020;2023-03-14T19:03:37;23.45;;;14.25;;
28007;SDS011;15333;50.010;20.020;2023-03-14T19:06:39;24.58;;;13.90;;
28007;SDS011;15333;50.010;20.020;2023-03-14T19:09:41;23.42;;;13.63;;
28007;SDS011;15333;50.010;20.020;2023-03-14T19:12:42;27.02;;;15.80;;
28007;SDS011;15333;50.010;20.020;2023-03-14T19:15:43;24.90;;;14.60;;